Time;durP1;ratioP1;P1;durP2;ratioP2;P2;SDS_P1;SDS_P2;PMS_P1;PMS_P2;Temp;Humidity;BMP_temperature;BMP_pressure;BME280_temperature;BME280_humidity;BME280_pressure;Samples;Min_cycle;Max_cycle;Signal;HPM_P1;HPM_P2
2023/05/26 00:00:24;;;;;;;20.60;4.80;;;10.20;99.90;;;;;;5011464;28;20036;-77
2023/05/26 00:02:50;;;;;;;21.85;4.03;;;10.20;99.90;;;;;;5011319;28;20080;-77
2023/05/26 00:05:16;;;;;;;23.83;4.07;;;10.20;99.90;;;;;;5030511;28;20048;-77
2023/05/26 00:07:42;;;;;;;19.58;4.85;;;10.20;99.90;;;;;;5010609;28;20095;-77
2023/05/26 00:10:09;;;;;;;20.25;4.45;;;10.20;99.90;;;;;;5011540;28;20457;-77
2023/05/26 00:12:36;;;;;;;13.77;3.58;;;10.20;99.90;;;;;;4989496;28;20071;-77
2023/05/26 00:15:02;;;;;;;18.35;4.07;;;10.20;99.90;;;;;;5011516;28;20045;-77
2023/05/26 00:17:28;;;;;;;25.63;5.03;;;10.20;99.90;;;;;;4993292;28;20076;-77
2023/05/26 00:19:54;;;;;;;17.92;3.50;;;10.20;99.90;;;;;;4992098;28;20041;-77
2023/05/26 00:22:20;;;;;;;23.40;4.22;;;10.10;99.90;;;;;;5012019;28;20037;-78
2023/05/26 00:24:46;;;;;;;17.73;3.95;;;10.10;99.90;;;;;;5011349;28;20068;-78
2023/05/26 00:27:12;;;;;;;17.90;4.00;;;10.00;99.90;;;;;;5011458;28;20671;-78
2023/05/26 00:29:38;;;;;;;20.50;4.60;;;10.00;99.90;;;;;;5011039;28;20124;-77
2023/05/26 00:32:04;;;;;;;18.23;4.55;;;9.90;99.90;;;;;;5028269;28;20120;-77
2023/05/26 00:34:30;;;;;;;17.33;4.30;;;9.80;99.90;;;;;;5012914;28;20046;-78
2023/05/26 00:36:55;;;;;;;12.82;3.05;;;9.80;99.90;;;;;;5012783;28;20042;-78
2023/05/26 00:39:21;;;;;;;18.10;3.97;;;9.80;99.90;;;;;;5009441;28;20132;-78
2023/05/26 00:41:48;;;;;;;15.77;3.78;;;9.70;99.90;;;;;;5029744;28;20030;-78
2023/05/26 00:44:14;;;;;;;18.85;4.43;;;9.80;99.90;;;;;;5012076;28;20121;-78
2023/05/26 00:46:40;;;;;;;18.85;4.70;;;9.70;99.90;;;;;;5010635;28;20050;-78
2023/05/26 00:49:06;;;;;;;16.65;3.95;;;9.70;99.90;;;;;;5011093;28;20077;-77
2023/05/26 00:51:32;;;;;;;18.75;4.03;;;9.70;99.90;;;;;;5011253;28;20041;-78
2023/05/26 00:53:59;;;;;;;23.40;4.45;;;9.60;99.90;;;;;;5012082;28;20060;-77
2023/05/26 00:56:27;;;;;;;18.42;4.03;;;9.60;99.90;;;;;;5028654;28;20041;-78
2023/05/26 00:58:54;;;;;;;21.15;4.28;;;9.60;99.90;;;;;;5027900;28;20084;-78
2023/05/26 01:01:19;;;;;;;18.15;3.70;;;9.60;99.90;;;;;;5028428;28;20041;-78
2023/05/26 01:03:46;;;;;;;20.67;4.05;;;9.60;99.90;;;;;;5011414;28;20044;-78
2023/05/26 01:06:11;;;;;;;16.13;3.78;;;9.50;99.90;;;;;;5009953;28;20034;-78
2023/05/26 01:08:37;;;;;;;21.05;4.82;;;9.50;99.90;;;;;;5013860;28;20064;-77
2023/05/26 01:11:08;;;;;;;15.90;3.90;;;9.50;99.90;;;;;;5031364;28;20048;-77
2023/05/26 01:13:51;;;;;;;19.63;4.30;;;9.40;99.90;;;;;;5032663;28;20507;-78
2023/05/26 01:16:18;;;;;;;14.02;3.17;;;9.40;99.90;;;;;;5027794;28;20040;-77
2023/05/26 01:18:56;;;;;;;20.40;3.90;;;9.40;99.90;;;;;;5015278;28;20115;-78
2023/05/26 01:21:27;;;;;;;17.40;4.03;;;9.40;99.90;;;;;;5015134;28;20049;-78
2023/05/26 01:24:32;;;;;;;16.50;3.70;;;9.40;99.90;;;;;;5033022;28;20409;-77
2023/05/26 01:27:00;;;;;;;;;;;9.40;99.90;;;;;;4977882;28;20658;-77
2023/05/26 01:29:29;;;;;;;15.85;3.30;;;9.30;99.90;;;;;;5031362;28;19980;-79
2023/05/26 01:32:04;;;;;;;19.23;3.95;;;9.30;99.90;;;;;;5014473;28;20413;-78
2023/05/26 01:34:29;;;;;;;18.30;3.70;;;9.20;99.90;;;;;;5015639;28;20052;-78
2023/05/26 01:36:55;;;;;;;16.50;3.63;;;9.20;99.90;;;;;;5013300;28;20049;-78
2023/05/26 01:39:21;;;;;;;22.05;4.05;;;9.20;99.90;;;;;;5015067;28;20041;-78
2023/05/26 01:42:18;;;;;;;17.80;4.32;;;9.20;99.90;;;;;;5013526;28;20029;-78
2023/05/26 01:44:58;;;;;;;20.25;4.00;;;9.10;99.90;;;;;;5030291;28;20095;-78
2023/05/26 01:47:25;;;;;;;19.42;3.58;;;9.10;99.90;;;;;;5011194;28;20501;-77
2023/05/26 01:49:51;;;;;;;17.02;4.15;;;9.10;99.90;;;;;;5013991;28;20065;-77
2023/05/26 01:52:18;;;;;;;20.42;3.88;;;9.10;99.90;;;;;;5013539;28;20076;-78
2023/05/26 01:54:51;;;;;;;17.92;3.60;;;9.00;99.90;;;;;;5014257;28;20045;-78
2023/05/26 01:57:18;;;;;;;19.58;4.15;;;9.00;99.90;;;;;;5012644;28;20073;-78
2023/05/26 01:59:43;;;;;;;18.58;4.63;;;8.90;99.90;;;;;;5013587;28;20037;-78
2023/05/26 02:02:09;;;;;;;21.67;4.35;;;8.90;99.90;;;;;;5014832;28;20045;-78
2023/05/26 02:04:34;;;;;;;16.48;4.03;;;8.90;99.90;;;;;;5015377;28;20409;-77
2023/05/26 02:07:02;;;;;;;13.07;2.78;;;8.90;99.90;;;;;;5013099;28;20171;-77
2023/05/26 02:09:29;;;;;;;21.98;4.30;;;8.90;99.90;;;;;;5032053;28;20049;-78
2023/05/26 02:11:55;;;;;;;20.20;3.60;;;8.90;99.90;;;;;;5031541;28;20442;-78
2023/05/26 02:14:20;;;;;;;17.38;3.42;;;8.80;99.90;;;;;;5014283;28;20099;-78
2023/05/26 02:16:46;;;;;;;19.02;3.50;;;8.90;99.90;;;;;;5012646;28;20072;-78
2023/05/26 02:19:12;;;;;;;17.30;4.00;;;8.80;99.90;;;;;;4996924;28;20077;-77
2023/05/26 02:21:38;;;;;;;18.90;4.85;;;8.80;99.90;;;;;;5013484;28;20053;-77
2023/05/26 02:24:04;;;;;;;18.63;4.30;;;8.80;99.90;;;;;;5032883;28;20040;-78
2023/05/26 02:26:30;;;;;;;20.73;3.58;;;8.80;99.90;;;;;;5014379;28;20041;-78
2023/05/26 02:28:56;;;;;;;18.05;4.13;;;8.70;99.90;;;;;;5012004;28;20037;-78
2023/05/26 02:31:22;;;;;;;17.48;4.65;;;8.80;99.90;;;;;;5013604;28;20367;-78
2023/05/26 02:33:49;;;;;;;17.00;4.00;;;8.80;99.90;;;;;;5015146;28;20037;-78
2023/05/26 02:36:14;;;;;;;22.02;3.85;;;8.80;99.90;;;;;;5013550;28;20041;-78
2023/05/26 02:38:40;;;;;;;17.17;4.05;;;8.70;99.90;;;;;;5013713;28;20115;-77
2023/05/26 02:41:07;;;;;;;20.88;5.60;;;8.70;99.90;;;;;;5013024;28;20053;-78
2023/05/26 02:43:33;;;;;;;17.15;3.45;;;8.70;99.90;;;;;;5031626;28;20073;-78
2023/05/26 02:45:59;;;;;;;20.75;3.95;;;8.70;99.90;;;;;;5031636;28;20077;-78
2023/05/26 02:48:24;;;;;;;16.40;3.88;;;8.70;99.90;;;;;;5031581;28;20408;-78
2023/05/26 02:50:50;;;;;;;22.40;3.80;;;8.70;99.90;;;;;;5031030;28;20033;-78
2023/05/26 02:53:16;;;;;;;18.15;3.47;;;8.70;99.90;;;;;;5013531;28;20033;-77
2023/05/26 02:55:42;;;;;;;17.48;3.95;;;8.70;99.90;;;;;;5011973;28;20041;-77
2023/05/26 02:58:07;;;;;;;17.27;4.22;;;8.70;99.90;;;;;;5029895;28;20727;-78
2023/05/26 03:00:33;;;;;;;20.10;4.35;;;8.60;99.90;;;;;;5012530;28;20116;-77
2023/05/26 03:03:00;;;;;;;15.25;3.70;;;8.60;99.90;;;;;;5012643;28;20065;-78
2023/05/26 03:05:25;;;;;;;17.60;3.55;;;8.60;99.90;;;;;;5011074;28;20045;-78
2023/05/26 03:07:51;;;;;;;20.30;4.03;;;8.60;99.90;;;;;;5012363;28;20060;-78
2023/05/26 03:10:16;;;;;;;18.33;3.45;;;8.60;99.90;;;;;;5012646;28;20037;-77
2023/05/26 03:12:42;;;;;;;20.52;3.92;;;8.50;99.90;;;;;;5029784;28;20033;-78
2023/05/26 03:15:08;;;;;;;18.83;4.00;;;8.50;99.90;;;;;;5011399;28;20037;-77
2023/05/26 03:17:33;;;;;;;16.25;3.55;;;8.50;99.90;;;;;;5014036;28;20037;-77
2023/05/26 03:19:59;;;;;;;18.77;4.00;;;8.50;99.90;;;;;;5012412;28;20064;-78
2023/05/26 03:22:25;;;;;;;19.75;4.05;;;8.50;99.90;;;;;;5012314;28;20040;-77
2023/05/26 03:24:50;;;;;;;17.00;3.78;;;8.50;99.90;;;;;;5031880;28;20076;-77
2023/05/26 03:27:17;;;;;;;15.73;3.83;;;8.40;99.90;;;;;;5011109;28;20484;-77
2023/05/26 03:29:43;;;;;;;15.48;3.35;;;8.40;99.90;;;;;;5029272;28;20044;-77
2023/05/26 03:32:08;;;;;;;21.02;3.35;;;8.40;99.90;;;;;;5011404;28;20489;-78
2023/05/26 03:34:39;;;;;;;15.38;3.50;;;8.40;99.90;;;;;;5012456;28;20401;-77
2023/05/26 03:37:07;;;;;;;18.35;3.60;;;8.40;99.90;;;;;;5012225;28;20088;-77
2023/05/26 03:39:33;;;;;;;16.15;3.60;;;8.40;99.90;;;;;;5011700;28;20038;-77
2023/05/26 03:41:59;;;;;;;17.77;3.72;;;8.40;99.90;;;;;;4994783;28;20089;-78
2023/05/26 03:44:26;;;;;;;19.98;3.45;;;8.40;99.90;;;;;;5012795;28;20397;-77
2023/05/26 03:46:51;;;;;;;19.45;4.10;;;8.50;99.90;;;;;;5010351;28;20051;-77
2023/05/26 03:49:17;;;;;;;16.67;4.50;;;8.40;99.90;;;;;;5011198;28;20048;-77
2023/05/26 03:51:43;;;;;;;13.90;3.97;;;8.40;99.90;;;;;;5012623;28;20044;-77
2023/05/26 03:54:08;;;;;;;16.48;3.65;;;8.40;99.90;;;;;;5028563;28;20529;-77
2023/05/26 03:56:34;;;;;;;20.55;3.47;;;8.40;99.90;;;;;;5010697;28;20049;-77
2023/05/26 03:58:59;;;;;;;19.75;3.35;;;8.50;99.90;;;;;;5029496;28;20065;-77
2023/05/26 04:01:25;;;;;;;14.90;3.42;;;8.50;99.90;;;;;;5028529;28;20033;-77
2023/05/26 04:03:51;;;;;;;18.13;3.63;;;8.50;99.90;;;;;;5030572;28;20042;-77
2023/05/26 04:06:16;;;;;;;16.67;3.55;;;8.50;99.90;;;;;;5009924;28;20041;-77
2023/05/26 04:08:42;;;;;;;17.23;3.80;;;8.50;99.90;;;;;;5011480;28;20094;-77
2023/05/26 04:11:08;;;;;;;14.00;3.20;;;8.60;99.90;;;;;;5012196;28;20041;-78
2023/05/26 04:13:40;;;;;;;19.15;3.58;;;8.60;99.90;;;;;;5011527;28;20041;-78
2023/05/26 04:16:06;;;;;;;19.50;3.67;;;8.70;99.90;;;;;;4995317;28;20052;-78
2023/05/26 04:18:31;;;;;;;17.30;3.40;;;8.70;99.90;;;;;;5011961;28;20041;-78
2023/05/26 04:20:57;;;;;;;13.55;3.20;;;8.70;99.90;;;;;;5027526;28;20132;-78
2023/05/26 04:23:23;;;;;;;20.98;4.32;;;8.70;99.90;;;;;;5011442;28;20128;-78
2023/05/26 04:25:49;;;;;;;16.40;3.45;;;8.80;99.90;;;;;;5011905;28;20049;-78
2023/05/26 04:28:15;;;;;;;20.13;4.45;;;8.80;99.90;;;;;;5012199;28;20066;-78
2023/05/26 04:30:42;;;;;;;15.82;3.85;;;8.90;99.90;;;;;;4992583;28;20419;-78
2023/05/26 04:33:09;;;;;;;18.55;3.67;;;8.90;99.90;;;;;;5030679;28;20049;-78
2023/05/26 04:35:35;;;;;;;18.15;3.63;;;9.00;99.90;;;;;;5028321;28;20056;-78
2023/05/26 04:38:01;;;;;;;21.75;3.90;;;9.00;99.90;;;;;;5009981;28;20132;-77
2023/05/26 04:40:27;;;;;;;20.85;4.10;;;9.10;99.90;;;;;;5029890;28;20448;-77
2023/05/26 04:42:52;;;;;;;16.30;3.88;;;9.20;99.90;;;;;;5014427;28;20033;-78
2023/05/26 04:45:18;;;;;;;20.92;4.07;;;9.30;99.90;;;;;;5013864;28;20089;-79
2023/05/26 04:47:45;;;;;;;18.88;3.90;;;9.30;99.90;;;;;;5015832;28;20068;-78
2023/05/26 04:50:16;;;;;;;18.02;2.95;;;9.40;99.90;;;;;;4994321;28;20416;-78
2023/05/26 04:52:42;;;;;;;16.25;3.30;;;9.50;99.90;;;;;;5015045;28;20053;-78
2023/05/26 04:55:08;;;;;;;18.92;3.83;;;9.60;99.90;;;;;;5032934;28;20464;-78
2023/05/26 04:57:34;;;;;;;16.55;3.67;;;9.70;99.90;;;;;;5031608;28;20068;-78
2023/05/26 05:00:00;;;;;;;17.88;3.50;;;9.80;99.90;;;;;;5014839;28;20438;-78
2023/05/26 05:02:26;;;;;;;22.65;4.10;;;9.90;99.90;;;;;;5015013;28;20116;-78
2023/05/26 05:04:52;;;;;;;17.90;3.58;;;9.90;99.90;;;;;;5014887;28;20124;-78
2023/05/26 05:07:18;;;;;;;16.67;3.78;;;10.00;99.90;;;;;;5012898;28;20072;-78
2023/05/26 05:09:44;;;;;;;17.38;4.30;;;10.10;99.90;;;;;;5013603;28;20053;-78
2023/05/26 05:12:09;;;;;;;21.70;3.67;;;10.10;99.90;;;;;;5032774;28;20033;-78
2023/05/26 05:14:35;;;;;;;19.33;4.35;;;10.20;99.90;;;;;;5032471;28;20036;-77
2023/05/26 05:17:00;;;;;;;18.90;3.92;;;10.40;99.90;;;;;;5030681;28;20029;-78
2023/05/26 05:19:26;;;;;;;21.50;4.05;;;10.50;99.90;;;;;;5014943;28;20065;-78
2023/05/26 05:21:52;;;;;;;15.13;4.25;;;10.60;99.90;;;;;;5032272;28;20120;-78
2023/05/26 05:24:17;;;;;;;18.33;3.95;;;10.60;99.90;;;;;;5015283;28;20041;-78
2023/05/26 05:26:43;;;;;;;19.38;3.40;;;10.70;99.90;;;;;;5014377;28;20037;-78
2023/05/26 05:29:08;;;;;;;13.48;3.60;;;10.90;99.90;;;;;;5014747;28;20041;-79
2023/05/26 05:31:34;;;;;;;19.25;3.30;;;11.00;99.90;;;;;;5012086;28;20048;-79
2023/05/26 05:34:00;;;;;;;17.45;4.13;;;11.10;99.90;;;;;;5014206;28;20532;-78
2023/05/26 05:36:25;;;;;;;17.83;4.07;;;11.20;99.90;;;;;;5014387;28;20477;-78
2023/05/26 05:38:51;;;;;;;18.35;3.85;;;11.30;99.90;;;;;;5012980;28;20056;-78
2023/05/26 05:41:17;;;;;;;23.08;4.35;;;11.40;99.90;;;;;;5031755;28;20460;-79
2023/05/26 05:43:42;;;;;;;19.00;4.38;;;11.40;99.90;;;;;;5013997;28;20029;-78
2023/05/26 05:46:09;;;;;;;19.77;4.57;;;11.50;99.90;;;;;;5015652;28;20038;-77
2023/05/26 05:48:34;;;;;;;19.23;3.92;;;11.60;99.90;;;;;;5015552;28;20088;-78
2023/05/26 05:51:00;;;;;;;19.95;3.70;;;11.70;99.90;;;;;;5015592;28;20077;-78
2023/05/26 05:53:26;;;;;;;17.98;4.10;;;11.80;99.90;;;;;;5015921;28;20052;-78
2023/05/26 05:55:52;;;;;;;16.85;3.63;;;11.90;99.90;;;;;;5015705;28;20109;-78
2023/05/26 05:58:17;;;;;;;18.45;3.33;;;12.00;99.90;;;;;;5015572;28;20054;-78
2023/05/26 06:00:43;;;;;;;20.02;4.30;;;12.10;99.90;;;;;;5015574;28;20037;-77
2023/05/26 06:03:08;;;;;;;18.23;3.50;;;12.20;99.90;;;;;;5015772;28;20034;-78
2023/05/26 06:05:34;;;;;;;18.23;3.50;;;12.20;99.90;;;;;;5015523;28;20041;-77
2023/05/26 06:08:00;;;;;;;17.17;4.25;;;12.30;99.90;;;;;;5033131;28;20052;-78
2023/05/26 06:10:26;;;;;;;19.60;3.40;;;12.40;99.90;;;;;;5033106;28;20402;-78
2023/05/26 06:12:51;;;;;;;17.27;3.97;;;12.40;99.90;;;;;;5025121;28;20046;-77
2023/05/26 06:15:18;;;;;;;18.63;3.72;;;12.60;99.90;;;;;;5015403;28;20048;-78
2023/05/26 06:17:44;;;;;;;16.50;3.72;;;12.60;99.90;;;;;;5015381;28;20046;-78
2023/05/26 06:20:10;;;;;;;18.80;4.93;;;12.50;99.90;;;;;;5013027;28;20043;-78
2023/05/26 06:22:36;;;;;;;14.93;3.45;;;12.30;99.90;;;;;;5009045;28;20041;-77
2023/05/26 06:25:03;;;;;;;21.42;3.60;;;12.10;99.90;;;;;;5015320;28;20038;-77
2023/05/26 06:27:29;;;;;;;15.23;3.53;;;11.90;99.90;;;;;;5014188;28;20072;-78
2023/05/26 06:29:54;;;;;;;20.95;3.95;;;11.70;99.90;;;;;;4998250;28;20128;-77
2023/05/26 06:32:20;;;;;;;16.85;3.45;;;11.70;99.90;;;;;;5019781;28;20038;-78
2023/05/26 06:34:46;;;;;;;16.85;3.25;;;11.70;99.90;;;;;;4990656;28;20053;-77
2023/05/26 06:37:12;;;;;;;19.17;3.55;;;11.80;99.90;;;;;;5014836;28;20045;-78
2023/05/26 06:39:37;;;;;;;18.30;4.38;;;12.00;99.90;;;;;;5013073;28;20045;-78
2023/05/26 06:42:03;;;;;;;22.63;4.10;;;12.20;99.90;;;;;;5012423;28;20041;-77
2023/05/26 06:44:29;;;;;;;22.77;4.95;;;12.40;99.90;;;;;;5010280;28;20535;-77
2023/05/26 06:46:55;;;;;;;13.13;3.47;;;12.60;99.90;;;;;;5012961;28;20037;-79
2023/05/26 06:49:20;;;;;;;12.60;3.70;;;12.90;99.90;;;;;;5012890;28;20033;-79
2023/05/26 06:51:46;;;;;;;18.23;3.63;;;13.10;99.90;;;;;;5013319;28;20033;-77
2023/05/26 06:54:12;;;;;;;15.27;3.50;;;13.20;99.90;;;;;;5012838;28;20037;-78
2023/05/26 06:56:37;;;;;;;16.33;3.70;;;13.40;99.90;;;;;;5014342;28;20037;-78
2023/05/26 06:59:03;;;;;;;13.40;3.08;;;13.60;99.90;;;;;;5012764;28;20041;-77
2023/05/26 07:01:28;;;;;;;20.90;3.47;;;13.70;99.90;;;;;;5011836;28;20517;-77
2023/05/26 07:03:54;;;;;;;14.95;3.70;;;13.80;99.90;;;;;;5014571;28;20409;-78
2023/05/26 07:06:19;;;;;;;12.73;3.15;;;13.90;99.90;;;;;;5013958;28;20041;-77
2023/05/26 07:08:45;;;;;;;15.45;3.00;;;13.90;99.90;;;;;;5029069;28;20041;-78
2023/05/26 07:11:11;;;;;;;11.90;3.35;;;13.90;99.90;;;;;;5031682;28;20044;-76
2023/05/26 07:13:36;;;;;;;13.80;3.08;;;13.90;99.90;;;;;;5013488;28;20041;-77
2023/05/26 07:16:02;;;;;;;14.45;3.25;;;14.00;99.90;;;;;;5013137;28;20562;-78
2023/05/26 07:18:27;;;;;;;19.80;3.55;;;14.10;99.90;;;;;;5013633;28;20709;-76
2023/05/26 07:20:53;;;;;;;16.05;2.92;;;14.20;99.90;;;;;;5014012;28;20042;-78
2023/05/26 07:23:18;;;;;;;13.40;2.88;;;14.20;99.90;;;;;;5011162;28;20112;-78
2023/05/26 07:25:44;;;;;;;11.10;2.97;;;14.30;99.90;;;;;;5010820;28;20476;-78
2023/05/26 07:28:09;;;;;;;13.10;2.50;;;14.30;99.90;;;;;;5011197;28;20127;-78
2023/05/26 07:30:35;;;;;;;12.93;3.35;;;14.50;99.90;;;;;;5025496;28;20497;-77
2023/05/26 07:33:01;;;;;;;11.63;2.72;;;14.60;99.90;;;;;;5029494;28;20483;-78
2023/05/26 07:35:26;;;;;;;12.48;2.92;;;14.70;99.90;;;;;;5012942;28;20041;-77
2023/05/26 07:37:52;;;;;;;13.32;2.75;;;14.70;99.90;;;;;;5011690;28;20045;-78
2023/05/26 07:40:17;;;;;;;13.20;2.95;;;14.80;99.90;;;;;;5030364;28;20515;-78
2023/05/26 07:42:44;;;;;;;9.52;2.42;;;14.90;99.90;;;;;;5011859;28;20071;-78
2023/05/26 07:45:10;;;;;;;10.48;3.00;;;14.90;99.90;;;;;;5028029;28;20116;-77
2023/05/26 07:47:35;;;;;;;13.57;3.03;;;15.00;99.90;;;;;;5010409;28;20129;-76
2023/05/26 07:50:01;;;;;;;13.90;2.80;;;15.10;99.90;;;;;;5012068;28;20493;-79
2023/05/26 07:52:28;;;;;;;11.77;2.63;;;15.20;99.90;;;;;;5011641;28;20080;-78
2023/05/26 07:54:53;;;;;;;12.00;3.00;;;15.30;99.90;;;;;;5012971;28;20050;-78
2023/05/26 07:57:19;;;;;;;18.88;3.10;;;15.40;99.90;;;;;;5013016;28;20111;-77
2023/05/26 07:59:45;;;;;;;15.80;3.70;;;15.50;99.90;;;;;;5031404;28;20052;-78
2023/05/26 08:02:11;;;;;;;10.55;2.72;;;15.50;99.90;;;;;;5012948;28;20405;-78
2023/05/26 08:04:37;;;;;;;14.60;3.10;;;15.50;99.90;;;;;;5030460;28;20045;-77
2023/05/26 08:07:02;;;;;;;13.05;3.15;;;15.90;99.90;;;;;;5013234;28;20543;-78
2023/05/26 08:09:28;;;;;;;10.90;2.67;;;15.50;99.90;;;;;;5030592;28;20029;-77
2023/05/26 08:11:53;;;;;;;13.35;3.00;;;15.60;99.90;;;;;;5028745;28;20037;-78
2023/05/26 08:14:20;;;;;;;14.27;2.83;;;15.60;99.90;;;;;;5011920;28;20132;-78
2023/05/26 08:16:46;;;;;;;10.60;3.33;;;15.70;99.90;;;;;;5028796;28;20091;-79
2023/05/26 08:19:11;;;;;;;13.05;2.95;;;15.70;99.90;;;;;;5030353;28;20044;-77
2023/05/26 08:21:37;;;;;;;15.25;3.35;;;15.80;99.90;;;;;;5011982;28;20045;-79
2023/05/26 08:24:03;;;;;;;11.35;3.28;;;15.80;99.90;;;;;;5011857;28;20413;-78
2023/05/26 08:26:28;;;;;;;12.95;2.72;;;15.80;99.90;;;;;;5012182;28;20120;-78
2023/05/26 08:28:54;;;;;;;11.52;2.75;;;16.00;99.90;;;;;;5012981;28;20095;-77
2023/05/26 08:31:20;;;;;;;9.80;2.67;;;16.00;99.90;;;;;;5012739;28;20528;-77
2023/05/26 08:33:45;;;;;;;11.57;2.80;;;16.00;99.90;;;;;;5011935;28;20045;-78
2023/05/26 08:36:11;;;;;;;8.90;2.67;;;16.00;99.90;;;;;;5012699;28;20049;-79
2023/05/26 08:38:36;;;;;;;12.18;2.72;;;16.00;99.90;;;;;;5029141;28;20429;-78
2023/05/26 08:41:05;;;;;;;9.98;2.95;;;15.90;99.90;;;;;;5012299;28;20033;-77
2023/05/26 08:43:56;;;;;;;11.93;3.05;;;15.90;99.90;;;;;;5012563;28;20476;-77
2023/05/26 08:46:22;;;;;;;14.60;2.78;;;15.90;99.90;;;;;;5012305;28;20033;-77
2023/05/26 08:48:50;;;;;;;10.35;2.85;;;16.00;99.90;;;;;;5030772;28;20107;-77
2023/05/26 08:51:16;;;;;;;14.25;2.67;;;16.00;99.90;;;;;;5012687;28;20513;-78
2023/05/26 08:53:43;;;;;;;10.50;2.80;;;16.00;99.90;;;;;;5012198;28;20091;-77
2023/05/26 08:56:09;;;;;;;12.70;3.58;;;16.10;99.90;;;;;;5030372;28;20095;-78
2023/05/26 08:58:35;;;;;;;12.75;2.85;;;16.10;99.90;;;;;;5012400;28;20049;-77
2023/05/26 09:01:01;;;;;;;12.57;2.97;;;16.00;99.90;;;;;;5030226;28;20045;-78
2023/05/26 09:03:28;;;;;;;15.15;3.10;;;16.10;99.90;;;;;;5011500;28;20034;-77
2023/05/26 09:05:53;;;;;;;11.13;2.80;;;16.10;99.90;;;;;;5012770;28;20042;-78
2023/05/26 09:08:19;;;;;;;12.15;2.88;;;16.10;99.90;;;;;;5012593;28;20125;-78
2023/05/26 09:10:45;;;;;;;11.25;2.63;;;16.00;99.90;;;;;;5012155;28;20048;-77
2023/05/26 09:13:14;;;;;;;12.48;2.97;;;16.10;99.90;;;;;;5010794;28;20041;-77
2023/05/26 09:15:40;;;;;;;15.35;3.28;;;16.20;99.90;;;;;;5007266;28;20049;-77
2023/05/26 09:18:12;;;;;;;17.92;3.92;;;16.20;99.90;;;;;;5012229;28;20050;-79
2023/05/26 09:20:41;;;;;;;13.13;2.92;;;16.10;99.90;;;;;;5028747;28;20101;-78
2023/05/26 09:23:07;;;;;;;14.20;3.13;;;16.10;99.90;;;;;;5010338;28;20140;-76
2023/05/26 09:25:37;;;;;;;16.70;3.10;;;16.20;99.90;;;;;;5011761;28;20037;-77
2023/05/26 09:28:05;;;;;;;14.73;3.50;;;16.30;99.90;;;;;;5007052;28;20421;-77
2023/05/26 09:30:44;;;;;;;14.55;2.92;;;16.30;99.90;;;;;;5033094;28;20386;-76
2023/05/26 09:33:13;;;;;;;11.77;2.92;;;16.40;99.90;;;;;;5028999;28;20088;-77
2023/05/26 09:35:40;;;;;;;12.23;2.85;;;16.40;99.90;;;;;;5016021;28;20037;-77
2023/05/26 09:38:08;;;;;;;13.93;2.85;;;16.50;99.90;;;;;;5015597;28;20083;-77
2023/05/26 09:40:34;;;;;;;13.13;2.92;;;16.50;99.90;;;;;;5016306;28;20513;-77
2023/05/26 09:43:00;;;;;;;14.70;3.72;;;16.50;99.90;;;;;;5033990;28;20075;-77
2023/05/26 09:45:32;;;;;;;10.80;2.90;;;16.30;99.90;;;;;;5033711;28;20041;-77
2023/05/26 09:47:57;;;;;;;11.57;2.80;;;16.30;99.90;;;;;;5033968;28;20037;-77
2023/05/26 09:50:24;;;;;;;12.95;3.20;;;16.10;99.90;;;;;;5033482;28;20405;-77
2023/05/26 09:52:50;;;;;;;10.80;2.78;;;16.40;99.90;;;;;;5016162;28;20041;-77
2023/05/26 09:55:19;;;;;;;11.52;3.10;;;16.60;99.90;;;;;;5033815;28;20413;-78
2023/05/26 09:57:48;;;;;;;11.27;2.88;;;16.50;99.90;;;;;;5015614;28;20084;-78
2023/05/26 10:00:18;;;;;;;12.98;3.03;;;16.50;99.90;;;;;;5015744;28;20038;-76
2023/05/26 10:02:46;;;;;;;12.52;2.80;;;16.40;99.90;;;;;;5033580;28;20127;-78
2023/05/26 10:05:12;;;;;;;10.13;2.97;;;16.40;99.90;;;;;;5015909;28;20382;-77
2023/05/26 10:07:41;;;;;;;12.82;3.13;;;16.40;99.90;;;;;;5033487;28;20128;-77
2023/05/26 10:10:11;;;;;;;11.70;3.17;;;16.60;99.90;;;;;;5015789;28;20041;-78
2023/05/26 10:12:36;;;;;;;10.95;2.92;;;16.70;99.90;;;;;;5014417;28;20046;-78
2023/05/26 10:15:03;;;;;;;12.80;3.00;;;16.70;99.90;;;;;;5025324;28;20037;-78
2023/05/26 10:17:29;;;;;;;9.95;2.65;;;16.60;99.90;;;;;;5015451;28;20052;-77
2023/05/26 10:19:56;;;;;;;11.32;2.90;;;16.80;99.90;;;;;;4999167;28;20629;-79
2023/05/26 10:22:43;;;;;;;12.00;2.83;;;16.90;99.90;;;;;;5033303;28;20037;-77
2023/05/26 10:25:17;;;;;;;13.73;3.08;;;16.90;99.90;;;;;;5033049;28;20056;-78
2023/05/26 10:27:54;;;;;;;8.07;2.67;;;16.90;99.90;;;;;;5015651;28;20045;-78
2023/05/26 10:30:20;;;;;;;11.25;3.15;;;16.90;99.90;;;;;;5015584;28;20049;-78
2023/05/26 10:32:46;;;;;;;10.73;2.95;;;17.00;99.90;;;;;;5015296;28;20103;-76
2023/05/26 10:35:22;;;;;;;10.38;2.97;;;17.10;99.90;;;;;;5015365;28;20503;-76
2023/05/26 10:37:57;;;;;;;11.85;3.10;;;17.30;99.90;;;;;;5015378;28;20051;-77
2023/05/26 10:40:39;;;;;;;13.07;3.03;;;17.30;99.90;;;;;;4998133;28;20037;-79
2023/05/26 10:43:17;;;;;;;11.90;3.63;;;17.30;99.90;;;;;;5033569;28;20456;-79
2023/05/26 10:45:55;;;;;;;11.23;2.88;;;17.40;99.90;;;;;;5015001;28;20055;-77
2023/05/26 10:48:21;;;;;;;10.45;2.75;;;17.50;99.90;;;;;;5011250;28;20041;-77
2023/05/26 10:50:59;;;;;;;8.98;2.88;;;17.50;99.90;;;;;;5025794;28;20037;-77
2023/05/26 10:53:30;;;;;;;13.25;3.20;;;17.60;99.90;;;;;;5029557;28;20034;-78
2023/05/26 10:55:58;;;;;;;16.77;3.55;;;17.70;99.90;;;;;;5014964;28;20038;-78
2023/05/26 10:58:29;;;;;;;9.45;2.47;;;17.80;99.90;;;;;;5014662;28;20401;-79
2023/05/26 11:00:59;;;;;;;14.48;3.20;;;17.80;99.90;;;;;;5014549;28;20516;-77
2023/05/26 11:03:36;;;;;;;14.73;3.22;;;17.80;99.90;;;;;;5014446;28;20045;-79
2023/05/26 11:06:03;;;;;;;12.77;3.10;;;17.90;99.90;;;;;;5032734;28;20484;-78
2023/05/26 11:08:45;;;;;;;13.75;3.15;;;17.80;99.90;;;;;;5032323;28;20124;-78
2023/05/26 11:11:12;;;;;;;11.55;3.05;;;17.90;99.90;;;;;;5014782;28;20041;-78
2023/05/26 11:13:42;;;;;;;12.35;3.35;;;17.90;99.90;;;;;;5014369;28;20099;-78
2023/05/26 11:16:16;;;;;;;12.00;3.25;;;17.90;99.90;;;;;;5014419;28;20056;-78
2023/05/26 11:18:54;;;;;;;12.63;3.35;;;18.20;99.90;;;;;;4998161;28;20128;-78
2023/05/26 11:21:29;;;;;;;12.98;3.53;;;18.00;99.90;;;;;;4997881;28;20120;-76
2023/05/26 11:23:56;;;;;;;11.88;2.83;;;18.20;99.90;;;;;;5007110;28;20501;-78
2023/05/26 11:26:25;;;;;;;14.25;3.42;;;18.60;99.90;;;;;;5031842;28;20124;-77
2023/05/26 11:28:52;;;;;;;12.40;3.40;;;18.90;99.90;;;;;;5010859;28;20052;-77
2023/05/26 11:31:19;;;;;;;12.90;3.78;;;19.20;99.90;;;;;;5014166;28;20056;-77
2023/05/26 11:33:47;;;;;;;15.50;4.10;;;19.10;99.90;;;;;;5031876;28;20095;-78
2023/05/26 11:36:14;;;;;;;14.75;3.67;;;18.20;99.90;;;;;;4997792;28;20045;-78
2023/05/26 11:38:40;;;;;;;16.98;3.97;;;17.90;99.90;;;;;;5014271;28;20045;-79
2023/05/26 11:41:07;;;;;;;17.15;3.58;;;17.30;99.90;;;;;;5031804;28;20041;-78
2023/05/26 11:43:35;;;;;;;14.80;3.13;;;17.40;99.90;;;;;;5014184;28;20112;-78
2023/05/26 11:46:03;;;;;;;16.02;3.58;;;17.60;99.90;;;;;;5013870;28;20090;-79
2023/05/26 11:48:37;;;;;;;15.07;3.53;;;17.80;99.90;;;;;;5013848;28;20696;-78
2023/05/26 11:51:14;;;;;;;14.60;3.00;;;17.70;99.90;;;;;;5031349;28;20044;-77
2023/05/26 11:53:41;;;;;;;11.82;3.28;;;18.20;99.90;;;;;;4997256;28;20042;-76
2023/05/26 11:56:07;;;;;;;13.45;3.42;;;18.60;99.90;;;;;;5031343;28;20048;-78
2023/05/26 11:58:37;;;;;;;10.50;2.97;;;19.00;99.90;;;;;;5013605;28;20045;-78
2023/05/26 12:01:04;;;;;;;11.48;3.80;;;19.00;99.10;;;;;;5031455;28;20053;-77
2023/05/26 12:03:41;;;;;;;14.05;3.40;;;19.50;99.90;;;;;;5011583;28;20037;-77
2023/05/26 12:06:13;;;;;;;14.35;3.10;;;19.70;99.90;;;;;;5031432;28;20709;-77
2023/05/26 12:08:50;;;;;;;13.07;3.70;;;20.00;99.60;;;;;;5012185;28;20604;-78
2023/05/26 12:11:33;;;;;;;14.90;3.28;;;20.10;99.70;;;;;;5013751;28;20042;-78
2023/05/26 12:14:10;;;;;;;13.68;3.55;;;20.10;98.40;;;;;;5024626;28;20041;-77
2023/05/26 12:16:55;;;;;;;10.45;2.83;;;20.00;99.70;;;;;;5031021;28;20048;-79
2023/05/26 12:19:23;;;;;;;12.52;3.13;;;20.00;99.20;;;;;;5013364;28;20129;-76
2023/05/26 12:21:56;;;;;;;10.52;3.20;;;19.80;98.10;;;;;;5013319;28;20037;-76
2023/05/26 12:24:37;;;;;;;14.38;3.70;;;20.20;99.50;;;;;;5013656;28;20049;-78
2023/05/26 12:27:10;;;;;;;10.35;2.83;;;20.40;99.10;;;;;;5030960;28;20037;-78
2023/05/26 12:29:38;;;;;;;13.38;3.33;;;20.70;98.80;;;;;;5031378;28;20443;-78
2023/05/26 12:32:06;;;;;;;12.57;3.38;;;20.30;97.50;;;;;;5022660;28;20091;-77
2023/05/26 12:34:31;;;;;;;13.07;3.40;;;20.50;98.20;;;;;;5030678;28;20045;-79
2023/05/26 12:36:57;;;;;;;9.65;3.10;;;20.30;98.00;;;;;;5015055;28;20116;-76
2023/05/26 12:39:23;;;;;;;13.90;4.10;;;20.50;98.30;;;;;;5032331;28;20034;-78
2023/05/26 12:41:48;;;;;;;11.30;3.10;;;20.70;97.80;;;;;;5016601;28;20057;-79